HLE07 EGSR-EGSR
Flight info
| Callsign | HLE07 |
|---|---|
| Flight time | 1h 30m |
| Altitude | 1500 |
| Route | VFR |
| Aircraft | A169/L-VGD/N |
Departure
| Time | 2026-04-16 09:05 |
|---|---|
| Airport | Earls Colne Airfield (EGSR) |
Arrival
| Time | 2026-04-16 10:35 |
|---|---|
| Airport | Earls Colne Airfield (EGSR) |
| Time | Latitude | Longitude | Altitude | Speed | Heading |
|---|---|---|---|---|---|
| 2026-04-16 08:35 | 51.91191 | 0.67671 | 230 ft | 0 kts | 216° |
| 2026-04-16 08:39 | 51.91190 | 0.67670 | 230 ft | 0 kts | 216° |
| 2026-04-16 09:03 | 51.91187 | 0.67669 | 232 ft | 1 kts | 216° |
| 2026-04-16 09:04 | 51.91201 | 0.67680 | 237 ft | 15 kts | 59° |
| 2026-04-16 09:04 | 51.91155 | 0.67453 | 260 ft | 81 kts | 246° |
| 2026-04-16 09:04 | 51.91106 | 0.66410 | 374 ft | 119 kts | 277° |
| 2026-04-16 09:04 | 51.91211 | 0.65375 | 551 ft | 125 kts | 281° |
| 2026-04-16 09:05 | 51.91098 | 0.63966 | 624 ft | 139 kts | 263° |
| 2026-04-16 09:05 | 51.90985 | 0.62307 | 783 ft | 159 kts | 264° |
| 2026-04-16 09:05 | 51.90858 | 0.60472 | 881 ft | 167 kts | 264° |
| 2026-04-16 09:05 | 51.90726 | 0.58573 | 963 ft | 167 kts | 263° |
| 2026-04-16 09:06 | 51.90598 | 0.56725 | 1040 ft | 167 kts | 263° |
| 2026-04-16 09:06 | 51.90466 | 0.54826 | 1114 ft | 167 kts | 263° |
| 2026-04-16 09:06 | 51.90336 | 0.52954 | 1188 ft | 167 kts | 263° |
| 2026-04-16 09:06 | 51.90206 | 0.51081 | 1258 ft | 167 kts | 263° |
| 2026-04-16 09:07 | 51.90077 | 0.49231 | 1313 ft | 167 kts | 263° |
| 2026-04-16 09:07 | 51.89947 | 0.47357 | 1337 ft | 167 kts | 263° |
| 2026-04-16 09:07 | 51.89817 | 0.45485 | 1359 ft | 167 kts | 263° |
| 2026-04-16 09:07 | 51.89711 | 0.43954 | 1373 ft | 165 kts | 264° |
| 2026-04-16 09:08 | 51.89623 | 0.42685 | 1381 ft | 167 kts | 263° |
| 2026-04-16 09:08 | 51.89493 | 0.40813 | 1414 ft | 167 kts | 263° |
| 2026-04-16 09:08 | 51.89320 | 0.38331 | 1446 ft | 167 kts | 263° |
| 2026-04-16 09:08 | 51.89190 | 0.36457 | 1476 ft | 167 kts | 263° |
| 2026-04-16 09:09 | 51.89060 | 0.34583 | 1501 ft | 167 kts | 263° |
| 2026-04-16 09:09 | 51.88930 | 0.32713 | 1523 ft | 167 kts | 264° |
| 2026-04-16 09:09 | 51.88842 | 0.31451 | 1534 ft | 167 kts | 264° |
| 2026-04-16 09:09 | 51.88712 | 0.29577 | 1550 ft | 168 kts | 263° |
| 2026-04-16 09:10 | 51.88591 | 0.27804 | 1265 ft | 145 kts | 264° |
| 2026-04-16 09:10 | 51.88483 | 0.26288 | 978 ft | 130 kts | 263° |
| 2026-04-16 09:10 | 51.88144 | 0.25243 | 925 ft | 99 kts | 181° |
| 2026-04-16 09:10 | 51.88023 | 0.26083 | 739 ft | 93 kts | 49° |
| 2026-04-16 09:11 | 51.88495 | 0.26669 | 687 ft | 86 kts | 33° |
| 2026-04-16 09:11 | 51.89001 | 0.26747 | 588 ft | 79 kts | 302° |
| 2026-04-16 09:11 | 51.88827 | 0.26016 | 517 ft | 77 kts | 227° |
| 2026-04-16 09:11 | 51.88467 | 0.25390 | 483 ft | 72 kts | 221° |
| 2026-04-16 09:12 | 51.88315 | 0.25660 | 469 ft | 58 kts | 55° |
| 2026-04-16 09:12 | 51.88603 | 0.26179 | 444 ft | 62 kts | 46° |
| 2026-04-16 09:12 | 51.88909 | 0.26662 | 451 ft | 61 kts | 43° |
| 2026-04-16 09:12 | 51.89222 | 0.26950 | 499 ft | 42 kts | 320° |
| 2026-04-16 09:13 | 51.89131 | 0.26561 | 419 ft | 32 kts | 227° |
| 2026-04-16 09:13 | 51.88995 | 0.26389 | 381 ft | 21 kts | 226° |
| 2026-04-16 09:13 | 51.88883 | 0.26223 | 379 ft | 21 kts | 226° |
| 2026-04-16 09:13 | 51.88836 | 0.26155 | 361 ft | 1 kts | 226° |
| 2026-04-16 09:14 | 51.88835 | 0.26153 | 353 ft | 0 kts | 228° |
| 2026-04-16 10:28 | 51.88831 | 0.26146 | 356 ft | 2 kts | 81° |
| 2026-04-16 10:29 | 51.88824 | 0.26091 | 453 ft | 4 kts | 86° |
| 2026-04-16 10:29 | 51.88829 | 0.26470 | 663 ft | 67 kts | 86° |
| 2026-04-16 10:29 | 51.88872 | 0.27552 | 563 ft | 132 kts | 86° |
| 2026-04-16 10:29 | 51.88942 | 0.29314 | 338 ft | 168 kts | 86° |
| 2026-04-16 10:30 | 51.89017 | 0.31194 | 486 ft | 167 kts | 86° |
| 2026-04-16 10:30 | 51.89093 | 0.33077 | 629 ft | 167 kts | 86° |
| 2026-04-16 10:30 | 51.89169 | 0.34959 | 767 ft | 167 kts | 86° |
| 2026-04-16 10:30 | 51.89245 | 0.36840 | 901 ft | 167 kts | 86° |
| 2026-04-16 10:31 | 51.89321 | 0.38722 | 1033 ft | 167 kts | 86° |
| 2026-04-16 10:31 | 51.89397 | 0.40602 | 1162 ft | 167 kts | 86° |
| 2026-04-16 10:31 | 51.89473 | 0.42481 | 1283 ft | 167 kts | 86° |
| 2026-04-16 10:31 | 51.89548 | 0.44339 | 1398 ft | 167 kts | 86° |
| 2026-04-16 10:32 | 51.89626 | 0.46241 | 1509 ft | 167 kts | 86° |
| 2026-04-16 10:32 | 51.89702 | 0.48123 | 1614 ft | 167 kts | 86° |
| 2026-04-16 10:32 | 51.89778 | 0.50003 | 1706 ft | 167 kts | 86° |
| 2026-04-16 10:32 | 51.89853 | 0.51857 | 1729 ft | 167 kts | 86° |
| 2026-04-16 10:33 | 51.89928 | 0.53738 | 1753 ft | 167 kts | 86° |
| 2026-04-16 10:33 | 51.90004 | 0.55619 | 1669 ft | 167 kts | 86° |
| 2026-04-16 10:33 | 51.90079 | 0.57500 | 1587 ft | 167 kts | 86° |
| 2026-04-16 10:33 | 51.90155 | 0.59382 | 1508 ft | 167 kts | 86° |
| 2026-04-16 10:34 | 51.90231 | 0.61262 | 1431 ft | 167 kts | 86° |
| 2026-04-16 10:34 | 51.90307 | 0.63145 | 1358 ft | 167 kts | 86° |
| 2026-04-16 10:34 | 51.90383 | 0.65026 | 1288 ft | 167 kts | 86° |
| 2026-04-16 10:34 | 51.90458 | 0.66902 | 1171 ft | 165 kts | 86° |
| 2026-04-16 10:35 | 51.90535 | 0.68757 | 839 ft | 162 kts | 84° |
| 2026-04-16 10:35 | 51.91267 | 0.69498 | 694 ft | 131 kts | 334° |
| 2026-04-16 10:35 | 51.91494 | 0.68440 | 265 ft | 82 kts | 237° |
| 2026-04-16 10:35 | 51.91313 | 0.67950 | 254 ft | 40 kts | 240° |
| 2026-04-16 10:36 | 51.91205 | 0.67699 | 236 ft | 8 kts | 229° |
| 2026-04-16 10:36 | 51.91190 | 0.67670 | 230 ft | 0 kts | 216° |
| 2026-04-16 10:50 | 51.91216 | 0.67704 | 258 ft | 13 kts | 219° |
| 2026-04-16 10:51 | 51.91273 | 0.67790 | 557 ft | 31 kts | 221° |
| 2026-04-16 10:51 | 51.90790 | 0.67177 | 497 ft | 112 kts | 220° |
| 2026-04-16 10:51 | 51.90096 | 0.66228 | 665 ft | 147 kts | 220° |
| 2026-04-16 10:51 | 51.89258 | 0.65076 | 723 ft | 166 kts | 220° |
| 2026-04-16 10:52 | 51.88371 | 0.63856 | 742 ft | 168 kts | 221° |
| 2026-04-16 10:52 | 51.87482 | 0.62633 | 760 ft | 168 kts | 221° |
| 2026-04-16 10:52 | 51.86593 | 0.61410 | 779 ft | 168 kts | 221° |
| 2026-04-16 10:52 | 51.85704 | 0.60188 | 799 ft | 168 kts | 221° |
| 2026-04-16 10:53 | 51.84817 | 0.58967 | 816 ft | 168 kts | 221° |
| 2026-04-16 10:53 | 51.83930 | 0.57747 | 834 ft | 168 kts | 221° |
| 2026-04-16 10:53 | 51.83042 | 0.56525 | 848 ft | 168 kts | 221° |
| 2026-04-16 10:53 | 51.82153 | 0.55302 | 864 ft | 168 kts | 221° |
| 2026-04-16 10:54 | 51.81266 | 0.54081 | 880 ft | 168 kts | 221° |
| 2026-04-16 10:54 | 51.80379 | 0.52861 | 897 ft | 168 kts | 221° |
| 2026-04-16 10:54 | 51.79490 | 0.51638 | 911 ft | 168 kts | 221° |
| 2026-04-16 10:54 | 51.78603 | 0.50417 | 922 ft | 168 kts | 221° |
| 2026-04-16 10:55 | 51.77716 | 0.49196 | 934 ft | 168 kts | 221° |
| 2026-04-16 10:55 | 51.77365 | 0.47609 | 738 ft | 153 kts | 274° |
| 2026-04-16 10:55 | 51.76739 | 0.46221 | 609 ft | 165 kts | 225° |
| 2026-04-16 10:55 | 51.75926 | 0.44876 | 698 ft | 167 kts | 226° |
| 2026-04-16 10:56 | 51.75111 | 0.43527 | 799 ft | 167 kts | 226° |
| 2026-04-16 10:56 | 51.74300 | 0.42182 | 891 ft | 167 kts | 226° |
| 2026-04-16 10:56 | 51.73485 | 0.40833 | 979 ft | 167 kts | 226° |
| 2026-04-16 10:56 | 51.72674 | 0.39487 | 1063 ft | 167 kts | 226° |
| 2026-04-16 10:57 | 51.71841 | 0.38195 | 1237 ft | 165 kts | 223° |
| 2026-04-16 10:57 | 51.70987 | 0.36917 | 1282 ft | 167 kts | 223° |
| 2026-04-16 10:57 | 51.70133 | 0.35641 | 1321 ft | 167 kts | 223° |
| 2026-04-16 10:57 | 51.69279 | 0.34365 | 1363 ft | 167 kts | 223° |
| 2026-04-16 10:58 | 51.68425 | 0.33088 | 1404 ft | 167 kts | 223° |
| 2026-04-16 10:58 | 51.67581 | 0.31828 | 1436 ft | 167 kts | 223° |
| 2026-04-16 10:58 | 51.66728 | 0.30553 | 1471 ft | 167 kts | 223° |
| 2026-04-16 10:58 | 51.65873 | 0.29276 | 1503 ft | 167 kts | 223° |
| 2026-04-16 10:59 | 51.65020 | 0.28002 | 1539 ft | 167 kts | 223° |
| 2026-04-16 10:59 | 51.64164 | 0.26725 | 1568 ft | 167 kts | 223° |
| 2026-04-16 10:59 | 51.63311 | 0.25452 | 1594 ft | 167 kts | 223° |
| 2026-04-16 10:59 | 51.62457 | 0.24177 | 1626 ft | 167 kts | 223° |
| 2026-04-16 11:00 | 51.61603 | 0.22901 | 1652 ft | 167 kts | 223° |
| 2026-04-16 11:00 | 51.60751 | 0.21630 | 1664 ft | 167 kts | 223° |
| 2026-04-16 11:00 | 51.59897 | 0.20356 | 1675 ft | 167 kts | 223° |
| 2026-04-16 11:00 | 51.59043 | 0.19081 | 1695 ft | 167 kts | 223° |
| 2026-04-16 11:01 | 51.58190 | 0.17807 | 1709 ft | 167 kts | 223° |
| 2026-04-16 11:01 | 51.57237 | 0.16929 | 1707 ft | 168 kts | 174° |
| 2026-04-16 11:01 | 51.56540 | 0.18237 | 1493 ft | 167 kts | 89° |
| 2026-04-16 11:01 | 51.57410 | 0.18872 | 1142 ft | 162 kts | 330° |
| 2026-04-16 11:02 | 51.57824 | 0.17427 | 873 ft | 135 kts | 236° |
| 2026-04-16 11:02 | 51.57380 | 0.17988 | 468 ft | 142 kts | 56° |
| 2026-04-16 11:02 | 51.58100 | 0.17863 | 500 ft | 114 kts | 290° |
| 2026-04-16 11:02 | 51.58102 | 0.16882 | 217 ft | 56 kts | 189° |
| 2026-04-16 11:03 | 51.57969 | 0.17407 | 128 ft | 60 kts | 87° |
| 2026-04-16 11:03 | 51.58060 | 0.17783 | 66 ft | 7 kts | 276° |
| 2026-04-16 11:03 | 51.58053 | 0.17777 | 52 ft | 0 kts | 221° |